AirNav   Get $300 off a Bose A20
 
 324 users online  

GA81 Big Dog - Cameron Field Airport
Ft Valley, Georgia, USA

GOING TO FT VALLEY?


FAA INFORMATION EFFECTIVE 25 APRIL 2019

Location

FAA Identifier: GA81
Lat/Long: 32-32-52.0000N / 083-49-37.0000W
32-32.866667N / 083-49.616667W
32.5477778 / -83.8269444
(estimated)
Elevation: 380 ft. / 116 m (estimated)
From city: 3 miles E of FT VALLEY, GA
Time zone: UTC -4 (UTC -5 during Standard Time)
Zip code: 31030

Airport Operations

Airport use: Private use. Permission required prior to landing
Activation date: 01/2003
Control tower: no
ARTCC: ATLANTA CENTER
FSS: MACON FLIGHT SERVICE STATION
Attendance: UNATNDD
Segmented circle: no

Airport Communications

WX AWOS-3 at PXE (4 nm SE): 123.825 (478-987-8768)
WX ASOS at MCN (13 nm NE): 120.775 (478-784-8825)

Nearby radio navigation aids

VOR radial/distance  VOR name  Freq  Var
MCNr226/12.5MACON VORTAC114.2001E
VNAr319/26.1VIENNA VORTAC116.5001E

 
NDB name  Hdg/Dist  Freq  Var  ID
MONTEZUMA044/14.242604WIZS .. --.. ...
LINDBERGH036/26.524204WLKG .-.. -.- --.
CONEY009/33.040006WOHY --- .... -.--

Airport Services

Runway Information

Runway 18/36

Dimensions: 3000 x 100 ft. / 914 x 30 m
Surface: turf
RUNWAY 18  RUNWAY 36
Traffic pattern: rightleft
Obstructions: 75 ft. pline, 1000 ft. from runway50 ft. pline, 3000 ft. from runway

Airport Ownership and Management from official FAA records

Ownership: Privately-owned
Owner: DAVID MURPHY
1651 BUCKEYE ROAD
FORT VALLEY, GA 31030
Phone 478-954-0225
Manager: DAVID MURPHY
1651 BUCKEYE ROAD
FORT VALLEY, GA 31030
Phone 478-954-0225

Airport Operational Statistics

Aircraft based on the field: 4
Single engine airplanes: 4
    

Additional Remarks

A113 WIND SOCK LOCATED ATOP OF MAIN HANGER. UNICOM- 122.9
LAND BETWEEN YELLOW CONES
LAND BETWEEN YELLOW CONES.

Instrument Procedures

There are no published instrument procedures at GA81.

Some nearby airports with instrument procedures:

KPXE - Perry-Houston County Airport (4 nm SE)
KMCN - Middle Georgia Regional Airport (13 nm NE)
KWRB - Robins Air Force Base (13 nm NE)
53A - Dr. C P Savage Sr. Airport (17 nm SW)
KMAC - Macon Downtown Airport (21 nm NE)
 
Loc | Ops | Rwys | IFR | FBO | Links
Com | Nav | Svcs | Stats | Notes
Area around GA81 (Big Dog - Cameron Field Airport)
 
Road maps at: MapQuest Bing Google
 
Aerial photo
No photo
 
Sectional chart

 
Airport distance calculator
Flying to Big Dog - Cameron Field Airport? Find the distance to fly.

From to GA81

Sunrise and sunset
Times for 20-May-2019
 Local
(UTC-4)
 Zulu
(UTC)
Morning civil twilight06:0710:07
Sunrise06:3510:35
Sunset20:2900:29
Evening civil twilight20:5600:56

Current date and time
Zulu (UTC)  20-May-2019 07:53:15
Local (UTC-4)  20-May-2019 03:53:15
 
METAR
KPXE 
4nm SE 
200735Z AUTO 00000KT 10SM CLR 20/18 A3001 RMK AO2 T02010175
KMCN 
12nm NE 
200653Z AUTO 14005KT 10SM CLR 21/17 A3000 RMK AO2 SLP155 T02110172
KWRB 
13nm E 
200656Z 15004KT 10SM CLR 20/18 A3000 RMK AO2A SLP159 T02010180 $
TAF
KMCN 
12nm NE 
200537Z 2006/2106 00000KT P6SM SCT120 BKN200 FM201400 27005KT P6SM SCT040 SCT120 FM201700 25007KT P6SM BKN050 FM202300 26004KT P6SM SCT070 FM210100 VRB03KT P6SM SKC
KWRB 
13nm E 
200500Z 2005/2111 VRB06KT 9999 FEW070 QNH2993INS BECMG 2011/2012 28009KT 9999 BKN050 QNH2998INS TX34/2020Z TN18/2011Z
NOTAMs
Click for the latest NOTAMs
NOTAMs are issued by the DoD/FAA and will open in a separate window not controlled by AirNav.

 

 
 

Would you like to see your business listed on this page?

 If your business provides an interesting product or service to pilots, flight crews, aircraft, or users of the Big Dog - Cameron Field Airport, you should consider listing it here.  To start the listing process, click on the button below
 
Add a business
 

Other Pages about Big Dog - Cameron Field Airport

Update a link
 
Copyright © AirNav, LLC. All rights reserved. Privacy Policy  Contact